Historique des mesures à Cassis (13260), France
Quotidien Résumé Juin 21, 2018 Unités:  Métrique    US   Métrique/US
« Précédent (Jour)
Suivant (Jour) »
Quotidien Hebdomadaire Mensuel Annuel Période au choix
  Maximum: Minimum: Moyenne:
Température: TemperatureC °C 24.1 °C 26.7 °C
Point de rosée: DewpointC °C 14.9 °C 15.9 °C
Humidité: Humidity % 40 % 49 %
Vitesse du vent: 0 km/h 0 km/h 3.9 km/h
Rafales: 0 km/h - -
Vent:- - SSE
Pression: PressurehPa hPa 1010.4 hPa -
Précipitations: 0.0 mm    
Historical Graphs
 
 
Mesures pour : Juin 21, 2018
Heure Temperature Point de rosée Pression Vent Vitesse du vent Rafales Humidité Pluie (par heure) Conditions
TemperatureC °C DewpointC °C PressurehPa hPa Calm     Humidity % HourlyPrecipMM mm SoftwareType W/m2
00:10 25.9 °C 15.0 °C 1014.2 hPa Calm     51 % 0.0 mm open2300-1.11 W/m2
01:10 25.5 °C 14.9 °C 1013.9 hPa North 4.2 km/h 4.2 km/h 52 % 0.0 mm open2300-1.11 W/m2
02:10 25.8 °C 14.9 °C 1013.8 hPa Calm   6.4 km/h 51 % 0.0 mm open2300-1.11 W/m2
03:10 25.1 °C 15.1 °C 1013.5 hPa WNW 10.3 km/h 10.3 km/h 54 % 0.0 mm open2300-1.11 W/m2
04:10 24.8 °C 15.1 °C 1013.2 hPa Calm   5.1 km/h 55 % 0.0 mm open2300-1.11 W/m2
05:10 24.4 °C 15.6 °C 1012.8 hPa Calm     58 % 0.0 mm open2300-1.11 W/m2
06:10 24.1 °C 15.3 °C 1012.9 hPa NNW 5.6 km/h 9.3 km/h 58 % 0.0 mm open2300-1.11 W/m2
07:10 24.2 °C 15.7 °C 1012.8 hPa NW 4.7 km/h 14 km/h 59 % 0.0 mm open2300-1.11 W/m2
08:10 26.4 °C 16.9 °C 1013.0 hPa North 4.7 km/h 6.4 km/h 56 % 0.0 mm open2300-1.11 W/m2
09:10 26.9 °C 16.5 °C 1012.9 hPa Calm   9.8 km/h 53 % 0.0 mm open2300-1.11 W/m2
10:10 29.2 °C 18.1 °C 1012.9 hPa SE 4.7 km/h 10.9 km/h 51 % 0.0 mm open2300-1.11 W/m2
11:10 31.3 °C 18.6 °C 1012.5 hPa SSE 2.3 km/h 17.4 km/h 47 % 0.0 mm open2300-1.11 W/m2
12:10 32.3 °C 18.8 °C 1012.4 hPa SSE 15.6 km/h 16.9 km/h 45 % 0.0 mm open2300-1.11 W/m2
13:10 32.4 °C 18.5 °C 1012.0 hPa SE 10.3 km/h 10.3 km/h 44 % 0.0 mm open2300-1.11 W/m2
14:10 31.8 °C 18.3 °C 1012.1 hPa SE 11.6 km/h 20.9 km/h 45 % 0.0 mm open2300-1.11 W/m2
15:10 31.0 °C 18.7 °C 1012.0 hPa Calm   12.7 km/h 48 % 0.0 mm open2300-1.11 W/m2
16:10 31.9 °C 16.9 °C 1011.1 hPa SSE 5.6 km/h 8 km/h 41 % 0.0 mm open2300-1.11 W/m2
17:10 31.8 °C 16.6 °C 1010.7 hPa Calm   9.8 km/h 40 % 0.0 mm open2300-1.11 W/m2
18:10 30.8 °C 17.1 °C 1010.7 hPa SSE 5.1 km/h 5.1 km/h 44 % 0.0 mm open2300-1.11 W/m2
19:10 28.9 °C 15.8 °C 1010.5 hPa ESE 10.9 km/h 10.9 km/h 45 % 0.0 mm open2300-1.11 W/m2
20:10 27.4 °C 15.7 °C 1010.5 hPa Calm   5.1 km/h 49 % 0.0 mm open2300-1.11 W/m2
21:10 26.5 °C 14.9 °C 1010.4 hPa Calm   15 km/h 49 % 0.0 mm open2300-1.11 W/m2
22:10 25.5 °C 16.6 °C 1010.4 hPa Calm     58 % 0.0 mm open2300-1.11 W/m2
23:10 24.7 °C 17.2 °C 1010.5 hPa Calm     63 % 0.0 mm open2300-1.11 W/m2
Observations météo à CASSIS
WU-History script by Weather Underground - 1 mb